sensor_id;sensor_type;location;lat;lon;timestamp;pressure;altitude;pressure_sealevel;temperature;humidity
65227;BME280;51805;49.012;12.104;2023-09-07T00:00:48;98254.94;;;23.48;49.22
65227;BME280;51805;49.012;12.104;2023-09-07T00:03:14;98259.56;;;23.47;49.21
65227;BME280;51805;49.012;12.104;2023-09-07T00:05:39;98260.34;;;23.48;49.27
65227;BME280;51805;49.012;12.104;2023-09-07T00:08:05;98256.28;;;23.50;49.30
65227;BME280;51805;49.012;12.104;2023-09-07T00:10:30;98260.34;;;23.48;49.29
65227;BME280;51805;49.012;12.104;2023-09-07T00:12:56;98221.13;;;23.20;49.24
65227;BME280;51805;49.012;12.104;2023-09-07T00:15:22;98234.06;;;23.38;49.29
65227;BME280;51805;49.012;12.104;2023-09-07T00:17:47;98254.94;;;23.48;49.20
65227;BME280;51805;49.012;12.104;2023-09-07T00:20:12;98244.13;;;23.43;49.23
65227;BME280;51805;49.012;12.104;2023-09-07T00:22:38;98239.75;;;23.42;49.17
65227;BME280;51805;49.012;12.104;2023-09-07T00:25:03;98226.00;;;23.33;49.25
65227;BME280;51805;49.012;12.104;2023-09-07T00:27:29;98258.19;;;23.45;49.21
65227;BME280;51805;49.012;12.104;2023-09-07T00:29:54;98239.75;;;23.42;49.14
65227;BME280;51805;49.012;12.104;2023-09-07T00:32:20;98237.63;;;23.39;49.06
65227;BME280;51805;49.012;12.104;2023-09-07T00:34:45;98246.84;;;23.43;49.08
65227;BME280;51805;49.012;12.104;2023-09-07T00:37:10;98230.56;;;23.38;49.28
65227;BME280;51805;49.012;12.104;2023-09-07T00:39:35;98231.09;;;23.40;49.07
65227;BME280;51805;49.012;12.104;2023-09-07T00:42:01;98241.13;;;23.44;49.15
65227;BME280;51805;49.012;12.104;2023-09-07T00:44:26;98233.81;;;23.40;49.21
65227;BME280;51805;49.012;12.104;2023-09-07T00:46:51;98224.59;;;23.36;49.14
65227;BME280;51805;49.012;12.104;2023-09-07T00:49:17;98241.91;;;23.45;49.33
65227;BME280;51805;49.012;12.104;2023-09-07T00:51:42;98235.16;;;23.42;49.12
65227;BME280;51805;49.012;12.104;2023-09-07T00:54:07;98220.56;;;23.33;48.99
65227;BME280;51805;49.012;12.104;2023-09-07T00:56:33;98238.41;;;23.44;48.95
65227;BME280;51805;49.012;12.104;2023-09-07T00:58:58;98238.94;;;23.41;48.96
65227;BME280;51805;49.012;12.104;2023-09-07T01:01:23;98227.03;;;23.37;49.17
65227;BME280;51805;49.012;12.104;2023-09-07T01:03:50;98216.50;;;23.31;49.01
65227;BME280;51805;49.012;12.104;2023-09-07T01:06:18;98232.47;;;23.37;48.99
65227;BME280;51805;49.012;12.104;2023-09-07T01:08:47;98235.97;;;23.43;49.06
65227;BME280;51805;49.012;12.104;2023-09-07T01:11:18;98220.78;;;23.37;49.05
65227;BME280;51805;49.012;12.104;2023-09-07T01:13:43;98220.00;;;23.36;49.01
65227;BME280;51805;49.012;12.104;2023-09-07T01:16:09;98223.50;;;23.42;49.02
65227;BME280;51805;49.012;12.104;2023-09-07T01:18:35;98228.38;;;23.40;48.88
65227;BME280;51805;49.012;12.104;2023-09-07T01:21:01;98226.47;;;23.40;48.65
65227;BME280;51805;49.012;12.104;2023-09-07T01:23:27;98224.88;;;23.39;48.93
65227;BME280;51805;49.012;12.104;2023-09-07T01:25:53;98207.78;;;23.34;48.97
65227;BME280;51805;49.012;12.104;2023-09-07T01:28:19;98215.94;;;23.34;49.00
65227;BME280;51805;49.012;12.104;2023-09-07T01:30:45;98218.63;;;23.39;48.83
65227;BME280;51805;49.012;12.104;2023-09-07T01:33:10;98209.94;;;23.37;48.86
65227;BME280;51805;49.012;12.104;2023-09-07T01:35:36;98219.44;;;23.39;48.94
65227;BME280;51805;49.012;12.104;2023-09-07T01:38:02;98209.94;;;23.37;48.96
65227;BME280;51805;49.012;12.104;2023-09-07T01:40:28;98207.28;;;23.32;48.93
65227;BME280;51805;49.012;12.104;2023-09-07T01:42:53;98211.31;;;23.34;49.13
65227;BME280;51805;49.012;12.104;2023-09-07T01:45:18;98193.44;;;23.23;48.69
65227;BME280;51805;49.012;12.104;2023-09-07T01:47:44;98207.78;;;23.34;48.87
65227;BME280;51805;49.012;12.104;2023-09-07T01:50:09;98198.06;;;23.28;48.94
65227;BME280;51805;49.012;12.104;2023-09-07T01:52:34;98201.81;;;23.37;48.93
65227;BME280;51805;49.012;12.104;2023-09-07T01:55:00;98214.59;;;23.36;49.01
65227;BME280;51805;49.012;12.104;2023-09-07T01:57:25;98204.03;;;23.30;48.89
65227;BME280;51805;49.012;12.104;2023-09-07T01:59:50;98217.81;;;23.38;48.80
65227;BME280;51805;49.012;12.104;2023-09-07T02:02:16;98210.50;;;23.34;48.85
65227;BME280;51805;49.012;12.104;2023-09-07T02:04:41;98205.09;;;23.34;48.76
65227;BME280;51805;49.012;12.104;2023-09-07T02:07:06;98217.28;;;23.36;48.68
65227;BME280;51805;49.012;12.104;2023-09-07T02:09:31;98198.59;;;23.30;48.81
65227;BME280;51805;49.012;12.104;2023-09-07T02:11:57;98206.72;;;23.35;48.76
65227;BME280;51805;49.012;12.104;2023-09-07T02:14:22;98201.34;;;23.25;48.78
65227;BME280;51805;49.012;12.104;2023-09-07T02:16:47;98208.91;;;23.28;48.72
65227;BME280;51805;49.012;12.104;2023-09-07T02:19:12;98218.63;;;23.34;48.56
65227;BME280;51805;49.012;12.104;2023-09-07T02:21:38;98214.31;;;23.33;48.58
65227;BME280;51805;49.012;12.104;2023-09-07T02:24:03;98208.34;;;23.31;48.81
65227;BME280;51805;49.012;12.104;2023-09-07T02:26:29;98198.63;;;23.25;48.55
65227;BME280;51805;49.012;12.104;2023-09-07T02:28:54;98204.59;;;23.27;48.60
65227;BME280;51805;49.012;12.104;2023-09-07T02:31:20;98185.38;;;23.13;48.56
65227;BME280;51805;49.012;12.104;2023-09-07T02:33:45;98197.25;;;23.22;48.59
65227;BME280;51805;49.012;12.104;2023-09-07T02:36:10;98209.19;;;23.26;48.65
65227;BME280;51805;49.012;12.104;2023-09-07T02:38:36;98213.25;;;23.29;48.67
65227;BME280;51805;49.012;12.104;2023-09-07T02:41:01;98212.44;;;23.28;48.69
65227;BME280;51805;49.012;12.104;2023-09-07T02:43:26;98214.88;;;23.30;48.68
65227;BME280;51805;49.012;12.104;2023-09-07T02:45:51;98211.63;;;23.28;48.70
65227;BME280;51805;49.012;12.104;2023-09-07T02:48:17;98173.72;;;23.08;48.60
65227;BME280;51805;49.012;12.104;2023-09-07T02:50:42;98216.50;;;23.31;48.59
65227;BME280;51805;49.012;12.104;2023-09-07T02:53:08;98216.53;;;23.26;48.61
65227;BME280;51805;49.012;12.104;2023-09-07T02:55:33;98218.69;;;23.29;48.53
65227;BME280;51805;49.012;12.104;2023-09-07T02:57:58;98207.03;;;23.28;48.68
65227;BME280;51805;49.012;12.104;2023-09-07T03:00:23;98211.91;;;23.26;48.38
65227;BME280;51805;49.012;12.104;2023-09-07T03:02:49;98200.25;;;23.16;48.59
65227;BME280;51805;49.012;12.104;2023-09-07T03:05:17;98204.28;;;23.23;48.48
65227;BME280;51805;49.012;12.104;2023-09-07T03:07:44;98201.56;;;23.23;48.44
65227;BME280;51805;49.012;12.104;2023-09-07T03:10:10;98211.09;;;23.21;48.48
65227;BME280;51805;49.012;12.104;2023-09-07T03:12:35;98198.66;;;23.15;48.46
65227;BME280;51805;49.012;12.104;2023-09-07T03:15:00;98217.31;;;23.26;48.57
65227;BME280;51805;49.012;12.104;2023-09-07T03:17:26;98217.06;;;23.23;48.46
65227;BME280;51805;49.012;12.104;2023-09-07T03:19:51;98215.41;;;23.22;48.39
65227;BME280;51805;49.012;12.104;2023-09-07T03:22:16;98203.22;;;23.19;48.33
65227;BME280;51805;49.012;12.104;2023-09-07T03:24:42;98194.28;;;23.14;48.56
65227;BME280;51805;49.012;12.104;2023-09-07T03:27:07;98206.22;;;23.18;48.39
65227;BME280;51805;49.012;12.104;2023-09-07T03:29:32;98201.88;;;23.17;48.42
65227;BME280;51805;49.012;12.104;2023-09-07T03:31:57;98106.69;;;22.59;48.28
65227;BME280;51805;49.012;12.104;2023-09-07T03:34:23;98198.09;;;23.18;48.45
65227;BME280;51805;49.012;12.104;2023-09-07T03:36:48;98204.06;;;23.15;48.37
65227;BME280;51805;49.012;12.104;2023-09-07T03:39:14;98203.81;;;23.11;48.48
65227;BME280;51805;49.012;12.104;2023-09-07T03:41:39;98218.69;;;23.19;48.39
65227;BME280;51805;49.012;12.104;2023-09-07T03:44:04;98204.63;;;23.07;48.40
65227;BME280;51805;49.012;12.104;2023-09-07T03:46:30;98207.88;;;23.09;48.33
65227;BME280;51805;49.012;12.104;2023-09-07T03:48:55;98205.69;;;23.11;48.24
65227;BME280;51805;49.012;12.104;2023-09-07T03:51:20;98225.97;;;23.23;48.24
65227;BME280;51805;49.012;12.104;2023-09-07T03:53:46;98193.00;;;23.01;48.31
65227;BME280;51805;49.012;12.104;2023-09-07T03:56:11;98221.66;;;23.17;48.11
65227;BME280;51805;49.012;12.104;2023-09-07T03:58:36;98219.50;;;23.14;48.32
65227;BME280;51805;49.012;12.104;2023-09-07T04:01:02;98193.25;;;22.99;48.12
65227;BME280;51805;49.012;12.104;2023-09-07T04:03:27;98219.78;;;23.18;48.06
65227;BME280;51805;49.012;12.104;2023-09-07T04:05:52;98198.66;;;23.04;48.15
65227;BME280;51805;49.012;12.104;2023-09-07T04:08:17;98204.91;;;23.10;48.12
65227;BME280;51805;49.012;12.104;2023-09-07T04:10:43;98215.97;;;23.14;48.10
65227;BME280;51805;49.012;12.104;2023-09-07T04:13:08;98212.19;;;23.15;48.12
65227;BME280;51805;49.012;12.104;2023-09-07T04:15:40;98209.78;;;23.13;48.11
65227;BME280;51805;49.012;12.104;2023-09-07T04:18:06;98203.03;;;23.06;48.02
65227;BME280;51805;49.012;12.104;2023-09-07T04:20:31;98204.06;;;23.10;47.98
65227;BME280;51805;49.012;12.104;2023-09-07T04:22:56;98179.75;;;22.94;48.12
65227;BME280;51805;49.012;12.104;2023-09-07T04:25:22;98212.47;;;23.13;48.18
65227;BME280;51805;49.012;12.104;2023-09-07T04:27:47;98213.03;;;23.05;48.19
65227;BME280;51805;49.012;12.104;2023-09-07T04:30:12;98203.81;;;23.06;48.14
65227;BME280;51805;49.012;12.104;2023-09-07T04:32:37;98209.78;;;23.03;47.97
65227;BME280;51805;49.012;12.104;2023-09-07T04:35:03;98216.03;;;23.09;48.44
65227;BME280;51805;49.012;12.104;2023-09-07T04:37:28;98231.19;;;23.10;48.22
65227;BME280;51805;49.012;12.104;2023-09-07T04:39:53;98224.16;;;23.09;48.30
65227;BME280;51805;49.012;12.104;2023-09-07T04:42:20;98229.03;;;23.12;48.15
65227;BME280;51805;49.012;12.104;2023-09-07T04:44:46;98232.81;;;23.11;48.23
65227;BME280;51805;49.012;12.104;2023-09-07T04:47:11;98203.59;;;22.92;48.11
65227;BME280;51805;49.012;12.104;2023-09-07T04:49:36;98223.88;;;23.05;48.08
65227;BME280;51805;49.012;12.104;2023-09-07T04:52:02;98208.47;;;22.95;48.19
65227;BME280;51805;49.012;12.104;2023-09-07T04:54:27;98231.19;;;23.10;48.19
65227;BME280;51805;49.012;12.104;2023-09-07T04:56:53;98235.00;;;23.09;48.15
65227;BME280;51805;49.012;12.104;2023-09-07T04:59:18;98235.50;;;23.11;47.98
65227;BME280;51805;49.012;12.104;2023-09-07T05:01:43;98241.75;;;23.11;48.03
65227;BME280;51805;49.012;12.104;2023-09-07T05:04:09;98237.44;;;23.10;48.07
65227;BME280;51805;49.012;12.104;2023-09-07T05:06:34;98234.44;;;23.12;47.93
65227;BME280;51805;49.012;12.104;2023-09-07T05:08:59;98221.47;;;22.93;48.01
65227;BME280;51805;49.012;12.104;2023-09-07T05:11:25;98217.97;;;22.93;48.04
65227;BME280;51805;49.012;12.104;2023-09-07T05:13:50;98194.41;;;22.78;48.02
65227;BME280;51805;49.012;12.104;2023-09-07T05:16:15;98242.03;;;23.10;48.00
65227;BME280;51805;49.012;12.104;2023-09-07T05:18:41;98247.72;;;23.13;47.96
65227;BME280;51805;49.012;12.104;2023-09-07T05:21:15;98235.00;;;23.03;47.67
65227;BME280;51805;49.012;12.104;2023-09-07T05:23:41;98243.69;;;23.06;48.17
65227;BME280;51805;49.012;12.104;2023-09-07T05:26:06;98250.94;;;23.15;47.70
65227;BME280;51805;49.012;12.104;2023-09-07T05:28:32;98147.31;;;22.44;47.79
65227;BME280;51805;49.012;12.104;2023-09-07T05:30:57;98231.75;;;22.96;47.55
65227;BME280;51805;49.012;12.104;2023-09-07T05:33:22;98255.03;;;23.18;48.02
65227;BME280;51805;49.012;12.104;2023-09-07T05:35:47;98261.78;;;23.15;47.73
65227;BME280;51805;49.012;12.104;2023-09-07T05:38:13;98255.59;;;23.15;47.54
65227;BME280;51805;49.012;12.104;2023-09-07T05:40:40;98258.56;;;23.13;47.71
65227;BME280;51805;49.012;12.104;2023-09-07T05:43:06;98249.63;;;23.08;47.65
65227;BME280;51805;49.012;12.104;2023-09-07T05:45:34;98273.47;;;23.21;47.44
65227;BME280;51805;49.012;12.104;2023-09-07T05:48:00;98257.75;;;23.13;47.62
65227;BME280;51805;49.012;12.104;2023-09-07T05:50:26;98268.56;;;23.23;47.49
65227;BME280;51805;49.012;12.104;2023-09-07T05:52:51;98254.50;;;23.11;47.52
65227;BME280;51805;49.012;12.104;2023-09-07T05:55:16;98254.75;;;23.14;47.38
65227;BME280;51805;49.012;12.104;2023-09-07T05:57:42;98261.25;;;23.18;47.40
65227;BME280;51805;49.012;12.104;2023-09-07T06:00:07;98265.06;;;23.17;47.39
65227;BME280;51805;49.012;12.104;2023-09-07T06:02:33;98285.94;;;23.32;47.34
65227;BME280;51805;49.012;12.104;2023-09-07T06:04:58;98268.81;;;23.21;47.42
65227;BME280;51805;49.012;12.104;2023-09-07T06:07:24;98290.81;;;23.35;47.36
65227;BME280;51805;49.012;12.104;2023-09-07T06:09:49;98258.81;;;23.17;47.21
65227;BME280;51805;49.012;12.104;2023-09-07T06:12:14;98228.25;;;23.01;47.25
65227;BME280;51805;49.012;12.104;2023-09-07T06:14:39;98261.53;;;23.17;47.28
65227;BME280;51805;49.012;12.104;2023-09-07T06:17:05;98295.13;;;23.41;47.08
65227;BME280;51805;49.012;12.104;2023-09-07T06:19:31;98263.69;;;23.25;47.15
65227;BME280;51805;49.012;12.104;2023-09-07T06:21:56;98277.81;;;23.27;47.05
65227;BME280;51805;49.012;12.104;2023-09-07T06:24:22;98289.97;;;23.44;46.98
65227;BME280;51805;49.012;12.104;2023-09-07T06:26:47;98265.06;;;23.27;47.13
65227;BME280;51805;49.012;12.104;2023-09-07T06:29:12;98290.47;;;23.41;47.01
65227;BME280;51805;49.012;12.104;2023-09-07T06:31:37;98270.72;;;23.31;47.05
65227;BME280;51805;49.012;12.104;2023-09-07T06:34:03;98270.16;;;23.34;47.03
65227;BME280;51805;49.012;12.104;2023-09-07T06:36:29;98307.78;;;23.55;47.07
65227;BME280;51805;49.012;12.104;2023-09-07T06:38:55;98305.34;;;23.54;46.95
65227;BME280;51805;49.012;12.104;2023-09-07T06:41:20;98296.16;;;23.50;46.98
65227;BME280;51805;49.012;12.104;2023-09-07T06:43:45;98294.56;;;23.49;47.00
65227;BME280;51805;49.012;12.104;2023-09-07T06:46:11;98305.63;;;23.57;46.73
65227;BME280;51805;49.012;12.104;2023-09-07T06:48:36;98283.44;;;23.45;46.77
65227;BME280;51805;49.012;12.104;2023-09-07T06:51:03;98309.66;;;23.65;46.92
65227;BME280;51805;49.012;12.104;2023-09-07T06:53:28;98303.19;;;23.61;46.88
65227;BME280;51805;49.012;12.104;2023-09-07T06:56:00;98307.50;;;23.67;46.61
65227;BME280;51805;49.012;12.104;2023-09-07T06:58:26;98314.53;;;23.68;46.83
65227;BME280;51805;49.012;12.104;2023-09-07T07:00:51;98280.38;;;23.57;46.74
65227;BME280;51805;49.012;12.104;2023-09-07T07:03:17;98286.34;;;23.64;46.79
65227;BME280;51805;49.012;12.104;2023-09-07T07:05:42;98296.34;;;23.73;46.66
65227;BME280;51805;49.012;12.104;2023-09-07T07:08:07;98287.94;;;23.70;46.67
65227;BME280;51805;49.012;12.104;2023-09-07T07:10:32;98305.78;;;23.81;46.66
65227;BME280;51805;49.012;12.104;2023-09-07T07:12:58;98295.22;;;23.79;46.74
65227;BME280;51805;49.012;12.104;2023-09-07T07:15:23;98312.81;;;23.87;46.53
65227;BME280;51805;49.012;12.104;2023-09-07T07:17:48;98290.34;;;23.76;46.56
65227;BME280;51805;49.012;12.104;2023-09-07T07:20:14;98309.81;;;23.88;47.06
65227;BME280;51805;49.012;12.104;2023-09-07T07:22:39;98298.22;;;23.78;46.97
65227;BME280;51805;49.012;12.104;2023-09-07T07:25:04;98305.50;;;23.82;46.87
65227;BME280;51805;49.012;12.104;2023-09-07T07:27:29;98303.34;;;23.84;46.93
65227;BME280;51805;49.012;12.104;2023-09-07T07:29:55;98298.78;;;23.75;48.72
65227;BME280;51805;49.012;12.104;2023-09-07T07:32:20;98309.28;;;23.86;48.57
65227;BME280;51805;49.012;12.104;2023-09-07T07:34:45;98304.66;;;23.92;49.24
65227;BME280;51805;49.012;12.104;2023-09-07T07:37:11;98294.59;;;23.92;48.25
65227;BME280;51805;49.012;12.104;2023-09-07T07:39:37;98311.66;;;24.03;47.88
65227;BME280;51805;49.012;12.104;2023-09-07T07:42:02;98301.88;;;24.07;47.60
65227;BME280;51805;49.012;12.104;2023-09-07T07:44:27;98301.63;;;24.03;47.48
65227;BME280;51805;49.012;12.104;2023-09-07T07:46:53;98274.25;;;23.90;47.43
65227;BME280;51805;49.012;12.104;2023-09-07T07:49:18;98288.59;;;23.95;47.47
65227;BME280;51805;49.012;12.104;2023-09-07T07:51:43;98305.13;;;24.09;47.53
65227;BME280;51805;49.012;12.104;2023-09-07T07:54:09;98304.56;;;24.12;47.28
65227;BME280;51805;49.012;12.104;2023-09-07T07:56:34;98291.03;;;24.02;47.54
65227;BME280;51805;49.012;12.104;2023-09-07T07:58:59;98283.47;;;23.99;47.82
65227;BME280;51805;49.012;12.104;2023-09-07T08:01:24;98289.94;;;24.03;47.68
65227;BME280;51805;49.012;12.104;2023-09-07T08:03:50;98295.88;;;24.10;47.69
65227;BME280;51805;49.012;12.104;2023-09-07T08:06:15;98301.31;;;24.10;47.64
65227;BME280;51805;49.012;12.104;2023-09-07T08:08:40;98292.06;;;24.11;47.66
65227;BME280;51805;49.012;12.104;2023-09-07T08:11:06;98288.03;;;24.08;47.64
65227;BME280;51805;49.012;12.104;2023-09-07T08:13:33;98311.03;;;24.21;47.51
65227;BME280;51805;49.012;12.104;2023-09-07T08:15:58;98292.59;;;24.13;47.60
65227;BME280;51805;49.012;12.104;2023-09-07T08:18:23;98309.91;;;24.22;47.77
65227;BME280;51805;49.012;12.104;2023-09-07T08:20:49;98290.44;;;24.15;47.83
65227;BME280;51805;49.012;12.104;2023-09-07T08:23:14;98301.22;;;24.20;47.80
65227;BME280;51805;49.012;12.104;2023-09-07T08:25:39;98294.19;;;24.19;47.85
65227;BME280;51805;49.012;12.104;2023-09-07T08:28:04;98293.63;;;24.22;47.96
65227;BME280;51805;49.012;12.104;2023-09-07T08:30:30;98312.31;;;24.33;47.90
65227;BME280;51805;49.012;12.104;2023-09-07T08:32:55;98296.31;;;24.27;47.83
65227;BME280;51805;49.012;12.104;2023-09-07T08:35:20;98269.28;;;24.12;47.63
65227;BME280;51805;49.012;12.104;2023-09-07T08:37:46;98313.34;;;24.37;47.77
65227;BME280;51805;49.012;12.104;2023-09-07T08:40:11;98302.78;;;24.31;47.65
65227;BME280;51805;49.012;12.104;2023-09-07T08:42:36;98278.94;;;24.23;47.96
65227;BME280;51805;49.012;12.104;2023-09-07T08:45:03;98309.22;;;24.45;47.70
65227;BME280;51805;49.012;12.104;2023-09-07T08:47:28;98297.88;;;24.38;47.54
65227;BME280;51805;49.012;12.104;2023-09-07T08:49:55;98304.88;;;24.44;47.63
65227;BME280;51805;49.012;12.104;2023-09-07T08:52:20;98288.63;;;24.39;47.72
65227;BME280;51805;49.012;12.104;2023-09-07T08:54:46;98298.34;;;24.45;47.62
65227;BME280;51805;49.012;12.104;2023-09-07T08:57:13;98285.34;;;24.37;47.68
65227;BME280;51805;49.012;12.104;2023-09-07T08:59:39;98269.13;;;24.32;47.63
65227;BME280;51805;49.012;12.104;2023-09-07T09:02:08;98291.19;;;24.54;47.42
65227;BME280;51805;49.012;12.104;2023-09-07T09:04:34;98270.13;;;24.41;47.08
65227;BME280;51805;49.012;12.104;2023-09-07T09:07:00;98285.84;;;24.49;46.88
65227;BME280;51805;49.012;12.104;2023-09-07T09:09:25;98283.34;;;24.52;46.01
65227;BME280;51805;49.012;12.104;2023-09-07T09:11:51;98282.56;;;24.52;44.99
65227;BME280;51805;49.012;12.104;2023-09-07T09:14:17;98278.25;;;24.46;45.78
65227;BME280;51805;49.012;12.104;2023-09-07T09:16:48;98280.16;;;24.45;45.69
65227;BME280;51805;49.012;12.104;2023-09-07T09:19:13;98300.94;;;24.60;45.06
65227;BME280;51805;49.012;12.104;2023-09-07T09:21:39;98300.16;;;24.59;43.72
65227;BME280;51805;49.012;12.104;2023-09-07T09:24:10;98294.72;;;24.59;44.35
65227;BME280;51805;49.012;12.104;2023-09-07T09:26:37;98292.88;;;24.50;44.25
65227;BME280;51805;49.012;12.104;2023-09-07T09:29:02;98300.44;;;24.58;43.99
65227;BME280;51805;49.012;12.104;2023-09-07T09:31:29;98272.56;;;24.42;44.00
65227;BME280;51805;49.012;12.104;2023-09-07T09:33:55;98295.03;;;24.53;44.43
65227;BME280;51805;49.012;12.104;2023-09-07T09:36:21;98262.28;;;24.39;41.93
65227;BME280;51805;49.012;12.104;2023-09-07T09:38:48;98295.00;;;24.58;43.30
65227;BME280;51805;49.012;12.104;2023-09-07T09:41:14;98267.91;;;24.43;41.33
65227;BME280;51805;49.012;12.104;2023-09-07T09:43:41;98261.97;;;24.41;40.91
65227;BME280;51805;49.012;12.104;2023-09-07T09:46:07;98286.88;;;24.53;42.42
65227;BME280;51805;49.012;12.104;2023-09-07T09:48:35;98292.84;;;24.55;40.76
65227;BME280;51805;49.012;12.104;2023-09-07T09:51:02;98283.06;;;24.54;40.78
65227;BME280;51805;49.012;12.104;2023-09-07T09:53:29;98298.78;;;24.57;41.11
65227;BME280;51805;49.012;12.104;2023-09-07T09:55:55;98295.28;;;24.56;41.89
65227;BME280;51805;49.012;12.104;2023-09-07T09:58:20;98270.63;;;24.43;41.64
65227;BME280;51805;49.012;12.104;2023-09-07T10:00:53;98278.19;;;24.51;39.24
65227;BME280;51805;49.012;12.104;2023-09-07T10:03:23;98284.97;;;24.53;40.74
65227;BME280;51805;49.012;12.104;2023-09-07T10:05:49;98294.13;;;24.63;39.95
65227;BME280;51805;49.012;12.104;2023-09-07T10:08:17;98254.91;;;24.40;41.06
65227;BME280;51805;49.012;12.104;2023-09-07T10:10:43;98293.06;;;24.58;40.69
65227;BME280;51805;49.012;12.104;2023-09-07T10:13:08;98285.78;;;24.54;40.44
65227;BME280;51805;49.012;12.104;2023-09-07T10:15:34;98283.34;;;24.52;41.20
65227;BME280;51805;49.012;12.104;2023-09-07T10:18:10;98276.28;;;24.51;39.98
65227;BME280;51805;49.012;12.104;2023-09-07T10:20:55;98274.63;;;24.55;39.17
65227;BME280;51805;49.012;12.104;2023-09-07T10:23:20;98273.56;;;24.51;40.00
65227;BME280;51805;49.012;12.104;2023-09-07T10:25:50;98268.44;;;24.50;39.06
65227;BME280;51805;49.012;12.104;2023-09-07T10:28:19;98266.25;;;24.52;39.33
65227;BME280;51805;49.012;12.104;2023-09-07T10:30:45;98243.53;;;24.38;39.17
65227;BME280;51805;49.012;12.104;2023-09-07T10:33:20;98250.84;;;24.42;39.29
65227;BME280;51805;49.012;12.104;2023-09-07T10:35:46;98263.81;;;24.50;39.00
65227;BME280;51805;49.012;12.104;2023-09-07T10:38:13;98265.41;;;24.51;39.91
65227;BME280;51805;49.012;12.104;2023-09-07T10:40:39;98251.97;;;24.36;40.42
65227;BME280;51805;49.012;12.104;2023-09-07T10:43:05;98256.00;;;24.39;39.30
65227;BME280;51805;49.012;12.104;2023-09-07T10:45:30;98223.53;;;24.24;40.78
65227;BME280;51805;49.012;12.104;2023-09-07T10:47:55;98258.69;;;24.44;39.61
65227;BME280;51805;49.012;12.104;2023-09-07T10:50:20;98250.00;;;24.42;40.17
65227;BME280;51805;49.012;12.104;2023-09-07T10:52:46;98247.31;;;24.37;38.87
65227;BME280;51805;49.012;12.104;2023-09-07T10:55:11;98246.81;;;24.35;39.71
65227;BME280;51805;49.012;12.104;2023-09-07T10:57:46;98253.22;;;24.49;39.47
65227;BME280;51805;49.012;12.104;2023-09-07T11:00:12;98250.50;;;24.49;39.04
65227;BME280;51805;49.012;12.104;2023-09-07T11:02:38;98248.91;;;24.43;39.61
65227;BME280;51805;49.012;12.104;2023-09-07T11:05:03;98219.44;;;24.26;39.04
65227;BME280;51805;49.012;12.104;2023-09-07T11:07:29;98203.25;;;24.16;38.98
65227;BME280;51805;49.012;12.104;2023-09-07T11:09:54;98240.28;;;24.36;38.95
65227;BME280;51805;49.012;12.104;2023-09-07T11:12:20;98244.00;;;24.45;40.39
65227;BME280;51805;49.012;12.104;2023-09-07T11:14:47;98241.00;;;24.46;40.48
65227;BME280;51805;49.012;12.104;2023-09-07T11:17:12;98227.16;;;24.43;39.76
65227;BME280;51805;49.012;12.104;2023-09-07T11:19:37;98227.63;;;24.55;39.63
65227;BME280;51805;49.012;12.104;2023-09-07T11:22:03;98213.09;;;24.41;40.59
65227;BME280;51805;49.012;12.104;2023-09-07T11:24:28;98202.25;;;24.36;40.32
65227;BME280;51805;49.012;12.104;2023-09-07T11:26:53;98201.66;;;24.44;40.44
65227;BME280;51805;49.012;12.104;2023-09-07T11:29:19;98201.94;;;24.42;40.64
65227;BME280;51805;49.012;12.104;2023-09-07T11:31:45;98198.59;;;24.50;40.20
65227;BME280;51805;49.012;12.104;2023-09-07T11:34:11;98207.81;;;24.49;40.78
65227;BME280;51805;49.012;12.104;2023-09-07T11:36:37;98200.25;;;24.46;41.11
65227;BME280;51805;49.012;12.104;2023-09-07T11:39:02;98210.75;;;24.58;41.10
65227;BME280;51805;49.012;12.104;2023-09-07T11:41:28;98197.78;;;24.50;40.62
65227;BME280;51805;49.012;12.104;2023-09-07T11:43:53;98205.03;;;24.59;41.11
65227;BME280;51805;49.012;12.104;2023-09-07T11:46:18;98186.00;;;24.59;40.73
65227;BME280;51805;49.012;12.104;2023-09-07T11:48:43;98197.38;;;24.67;40.83
65227;BME280;51805;49.012;12.104;2023-09-07T11:51:09;98203.34;;;24.63;40.98
65227;BME280;51805;49.012;12.104;2023-09-07T11:53:34;98184.72;;;24.52;41.12
65227;BME280;51805;49.012;12.104;2023-09-07T11:55:59;98190.63;;;24.59;40.95
65227;BME280;51805;49.012;12.104;2023-09-07T11:58:25;98209.06;;;24.67;40.71
65227;BME280;51805;49.012;12.104;2023-09-07T12:00:50;98157.34;;;24.43;40.88
65227;BME280;51805;49.012;12.104;2023-09-07T12:03:15;98178.66;;;24.60;41.11
65227;BME280;51805;49.012;12.104;2023-09-07T12:05:40;98180.00;;;24.63;40.67
65227;BME280;51805;49.012;12.104;2023-09-07T12:08:06;98177.28;;;24.63;40.65
65227;BME280;51805;49.012;12.104;2023-09-07T12:10:31;98163.97;;;24.61;40.57
65227;BME280;51805;49.012;12.104;2023-09-07T12:12:56;98178.06;;;24.68;40.55
65227;BME280;51805;49.012;12.104;2023-09-07T12:15:21;98196.47;;;24.76;40.85
65227;BME280;51805;49.012;12.104;2023-09-07T12:17:47;98180.19;;;24.71;40.64
65227;BME280;51805;49.012;12.104;2023-09-07T12:20:12;98180.69;;;24.78;40.50
65227;BME280;51805;49.012;12.104;2023-09-07T12:22:37;98192.53;;;24.87;40.58
65227;BME280;51805;49.012;12.104;2023-09-07T12:25:06;98184.44;;;24.82;40.61
65227;BME280;51805;49.012;12.104;2023-09-07T12:27:33;98170.88;;;24.77;40.61
65227;BME280;51805;49.012;12.104;2023-09-07T12:29:58;98171.41;;;24.79;40.56
65227;BME280;51805;49.012;12.104;2023-09-07T12:32:23;98187.06;;;24.92;40.48
65227;BME280;51805;49.012;12.104;2023-09-07T12:34:49;98188.06;;;24.96;40.48
65227;BME280;51805;49.012;12.104;2023-09-07T12:37:14;98175.59;;;24.95;40.57
65227;BME280;51805;49.012;12.104;2023-09-07T12:39:39;98177.19;;;24.96;40.55
65227;BME280;51805;49.012;12.104;2023-09-07T12:42:05;98151.22;;;24.85;40.40